Okahumpka, Florida
Current Conditions -  °F | °C
As of 11:53 AM on Thursday 27 Nov 2014 (Local Time) from KLEE Reporting Station
Clear Clear  
Wind Chill: 66°   Ceiling: Unl
Heat Index: 66°   Visibility: 10mi
Dew Point: 46°   Wind: 13mph
Humidity: 48%   Direction: 310°NW
Pressure: 30.25"   Gusts: NA
Location:  28.75°N, 81.9°W
Report Text: KLEE 271653Z 31011KT 10SM CLR 19/08 A3025 RMK AO2 SLP243 T01890078
Loading
Personal Weather Stations






























Interactive Weather Map New forecast layout! Learn more

10-Day Weather Forecast

Advertisements
Track Severe Weather on mobile